Time;durP1;ratioP1;P1;durP2;ratioP2;P2;SDS_P1;SDS_P2;PMS_P1;PMS_P2;Temp;Humidity;BMP_temperature;BMP_pressure;BME280_temperature;BME280_humidity;BME280_pressure;Samples;Min_cycle;Max_cycle;Signal;HPM_P1;HPM_P2
2022/01/20 00:00:33;;;;;;;5.5;4.3;;;;;;;2.86;64.84863;95723.39;;;;
2022/01/20 00:01:42;;;;;;;5.5;4.3;;;;;;;2.86;64.84863;95723.39;;;;
2022/01/20 00:02:43;;;;;;;5.5;4.3;;;;;;;2.86;64.84863;95723.39;;;;
2022/01/20 00:03:44;;;;;;;5.5;4.3;;;;;;;2.86;64.84863;95723.39;;;;
2022/01/20 00:04:50;;;;;;;5.5;4.3;;;;;;;2.86;64.84863;95723.39;;;;
2022/01/20 00:06:39;;;;;;;5.5;4.3;;;;;;;2.86;64.84863;95723.39;;;;
2022/01/20 00:07:50;;;;;;;5.299999;3.649999;;;;;;;2.69;65.10742;95707.69;;;;
2022/01/20 00:09:11;;;;;;;5.299999;3.649999;;;;;;;2.69;65.10742;95707.69;;;;
2022/01/20 00:26:10;;;;;;;5.4;3.9;;;;;;;2.7;65.07715;95705.38;;;;
2022/01/20 00:27:13;;;;;;;5.4;3.9;;;;;;;2.7;65.07715;95705.38;;;;
2022/01/20 00:28:16;;;;;;;5.4;3.9;;;;;;;2.7;65.07715;95705.38;;;;
2022/01/20 00:29:25;;;;;;;5.349999;3.7;;;;;;;2.75;65.05273;95710.47;;;;
2022/01/20 00:30:37;;;;;;;5.349999;3.7;;;;;;;2.75;65.05273;95710.47;;;;
2022/01/20 00:31:45;;;;;;;5.349999;3.7;;;;;;;2.75;65.05273;95710.47;;;;
2022/01/20 00:32:53;;;;;;;5.349999;3.7;;;;;;;2.75;65.05273;95710.47;;;;
2022/01/20 00:34:08;;;;;;;5.349999;3.7;;;;;;;2.75;65.05273;95710.47;;;;
2022/01/20 00:35:19;;;;;;;5.349999;3.7;;;;;;;2.75;65.05273;95710.47;;;;
2022/01/20 00:37:24;;;;;;;5.349999;3.7;;;;;;;2.75;65.05273;95710.47;;;;
2022/01/20 00:38:28;;;;;;;5.349999;3.7;;;;;;;2.75;65.05273;95710.47;;;;
2022/01/20 00:39:29;;;;;;;5.799999;3.95;;;;;;;2.86;64.96484;95706.59;;;;
2022/01/20 00:40:30;;;;;;;5.799999;3.95;;;;;;;2.86;64.96484;95706.59;;;;
2022/01/20 00:41:31;;;;;;;5.799999;3.95;;;;;;;2.86;64.96484;95706.59;;;;
2022/01/20 00:42:32;;;;;;;5.799999;3.95;;;;;;;2.86;64.96484;95706.59;;;;
2022/01/20 00:43:32;;;;;;;5.799999;3.95;;;;;;;2.86;64.96484;95706.59;;;;
2022/01/20 00:44:33;;;;;;;5.799999;3.95;;;;;;;2.86;64.96484;95706.59;;;;
2022/01/20 00:45:33;;;;;;;5.799999;3.95;;;;;;;2.86;64.96484;95706.59;;;;
2022/01/20 00:46:34;;;;;;;5.799999;3.95;;;;;;;2.86;64.96484;95706.59;;;;
2022/01/20 00:47:34;;;;;;;5.799999;3.95;;;;;;;2.86;64.96484;95706.59;;;;
2022/01/20 00:48:35;;;;;;;5.799999;3.95;;;;;;;2.86;64.96484;95706.59;;;;
2022/01/20 00:49:35;;;;;;;5.799999;3.95;;;;;;;2.86;64.96484;95706.59;;;;
2022/01/20 00:50:38;;;;;;;4.9;3.65;;;;;;;2.94;64.93359;95710.08;;;;
2022/01/20 00:51:38;;;;;;;4.9;3.65;;;;;;;2.94;64.93359;95710.08;;;;
2022/01/20 00:52:39;;;;;;;4.9;3.65;;;;;;;2.94;64.93359;95710.08;;;;
2022/01/20 00:53:44;;;;;;;4.9;3.65;;;;;;;2.94;64.93359;95710.08;;;;
2022/01/20 00:54:44;;;;;;;4.9;3.65;;;;;;;2.94;64.93359;95710.08;;;;
2022/01/20 00:55:46;;;;;;;4.9;3.65;;;;;;;2.94;64.93359;95710.08;;;;
2022/01/20 00:56:46;;;;;;;4.9;3.65;;;;;;;2.94;64.93359;95710.08;;;;
2022/01/20 00:57:47;;;;;;;4.9;3.65;;;;;;;2.94;64.93359;95710.08;;;;
2022/01/20 00:58:48;;;;;;;4.9;3.65;;;;;;;2.94;64.93359;95710.08;;;;
2022/01/20 00:59:48;;;;;;;4.9;3.65;;;;;;;2.94;64.93359;95710.08;;;;
2022/01/20 01:00:49;;;;;;;5.55;4.049999;;;;;;;2.93;64.97559;95707.53;;;;
2022/01/20 01:01:50;;;;;;;5.55;4.049999;;;;;;;2.93;64.97559;95707.53;;;;
2022/01/20 01:02:50;;;;;;;5.55;4.049999;;;;;;;2.93;64.97559;95707.53;;;;
2022/01/20 01:03:51;;;;;;;5.55;4.049999;;;;;;;2.93;64.97559;95707.53;;;;
2022/01/20 01:04:51;;;;;;;5.55;4.049999;;;;;;;2.93;64.97559;95707.53;;;;
2022/01/20 01:06:03;;;;;;;5.55;4.049999;;;;;;;2.93;64.97559;95707.53;;;;
2022/01/20 01:07:24;;;;;;;5.55;4.049999;;;;;;;2.93;64.97559;95707.53;;;;
2022/01/20 01:08:25;;;;;;;5.55;4.049999;;;;;;;2.93;64.97559;95707.53;;;;
2022/01/20 01:09:25;;;;;;;5.55;4.049999;;;;;;;2.93;64.97559;95707.53;;;;
2022/01/20 01:10:26;;;;;;;5.55;4.049999;;;;;;;2.93;64.97559;95707.53;;;;
2022/01/20 01:11:30;;;;;;;4.900001;3.65;;;;;;;2.99;65.00391;95711.7;;;;
2022/01/20 01:12:37;;;;;;;4.900001;3.65;;;;;;;2.99;65.00391;95711.7;;;;
2022/01/20 01:13:39;;;;;;;4.900001;3.65;;;;;;;2.99;65.00391;95711.7;;;;
2022/01/20 01:14:44;;;;;;;4.900001;3.65;;;;;;;2.99;65.00391;95711.7;;;;
2022/01/20 01:15:48;;;;;;;4.900001;3.65;;;;;;;2.99;65.00391;95711.7;;;;
2022/01/20 01:22:20;;;;;;;5.750001;3.6;;;;;;;3.04;65.08789;95721.25;;;;
2022/01/20 01:23:21;;;;;;;5.750001;3.6;;;;;;;3.04;65.08789;95721.25;;;;
2022/01/20 01:24:22;;;;;;;5.750001;3.6;;;;;;;3.04;65.08789;95721.25;;;;
2022/01/20 01:25:22;;;;;;;5.750001;3.6;;;;;;;3.04;65.08789;95721.25;;;;
2022/01/20 01:26:27;;;;;;;5.750001;3.6;;;;;;;3.04;65.08789;95721.25;;;;
2022/01/20 01:27:29;;;;;;;5.750001;3.6;;;;;;;3.04;65.08789;95721.25;;;;
2022/01/20 01:28:31;;;;;;;5.750001;3.6;;;;;;;3.04;65.08789;95721.25;;;;
2022/01/20 01:29:50;;;;;;;5.750001;3.6;;;;;;;3.04;65.08789;95721.25;;;;
2022/01/20 01:31:15;;;;;;;5.750001;3.6;;;;;;;3.04;65.08789;95721.25;;;;
2022/01/20 01:32:19;;;;;;;5.750001;3.6;;;;;;;3.04;65.08789;95721.25;;;;
2022/01/20 01:33:20;;;;;;;4.750001;3.5;;;;;;;3.09;65.03223;95716.72;;;;
2022/01/20 01:34:22;;;;;;;4.750001;3.5;;;;;;;3.09;65.03223;95716.72;;;;
2022/01/20 01:35:23;;;;;;;4.750001;3.5;;;;;;;3.09;65.03223;95716.72;;;;
2022/01/20 01:36:27;;;;;;;4.750001;3.5;;;;;;;3.09;65.03223;95716.72;;;;
2022/01/20 01:38:23;;;;;;;4.750001;3.5;;;;;;;3.09;65.03223;95716.72;;;;
2022/01/20 01:39:24;;;;;;;4.750001;3.5;;;;;;;3.09;65.03223;95716.72;;;;
2022/01/20 01:40:25;;;;;;;4.750001;3.5;;;;;;;3.09;65.03223;95716.72;;;;
2022/01/20 01:41:31;;;;;;;4.750001;3.5;;;;;;;3.09;65.03223;95716.72;;;;
2022/01/20 01:42:38;;;;;;;4.750001;3.5;;;;;;;3.09;65.03223;95716.72;;;;
2022/01/20 01:43:41;;;;;;;5.55;3.35;;;;;;;3.05;65.07715;95704.33;;;;
2022/01/20 01:44:43;;;;;;;5.55;3.35;;;;;;;3.05;65.07715;95704.33;;;;
2022/01/20 01:45:44;;;;;;;5.55;3.35;;;;;;;3.05;65.07715;95704.33;;;;
2022/01/20 01:46:45;;;;;;;5.55;3.35;;;;;;;3.05;65.07715;95704.33;;;;
2022/01/20 01:47:45;;;;;;;5.55;3.35;;;;;;;3.05;65.07715;95704.33;;;;
2022/01/20 01:48:47;;;;;;;5.55;3.35;;;;;;;3.05;65.07715;95704.33;;;;
2022/01/20 01:49:48;;;;;;;5.55;3.35;;;;;;;3.05;65.07715;95704.33;;;;
2022/01/20 01:50:48;;;;;;;5.55;3.35;;;;;;;3.05;65.07715;95704.33;;;;
2022/01/20 01:51:49;;;;;;;5.55;3.35;;;;;;;3.05;65.07715;95704.33;;;;
2022/01/20 01:52:50;;;;;;;5.55;3.35;;;;;;;3.05;65.07715;95704.33;;;;
2022/01/20 01:53:52;;;;;;;4.500001;3.45;;;;;;;3.03;65.13672;95702.34;;;;
2022/01/20 01:54:52;;;;;;;4.500001;3.45;;;;;;;3.03;65.13672;95702.34;;;;
2022/01/20 01:55:53;;;;;;;4.500001;3.45;;;;;;;3.03;65.13672;95702.34;;;;
2022/01/20 01:56:54;;;;;;;4.500001;3.45;;;;;;;3.03;65.13672;95702.34;;;;
2022/01/20 01:57:54;;;;;;;4.500001;3.45;;;;;;;3.03;65.13672;95702.34;;;;
2022/01/20 01:58:55;;;;;;;4.500001;3.45;;;;;;;3.03;65.13672;95702.34;;;;
2022/01/20 01:59:56;;;;;;;4.500001;3.45;;;;;;;3.03;65.13672;95702.34;;;;
2022/01/20 02:00:56;;;;;;;4.500001;3.45;;;;;;;3.03;65.13672;95702.34;;;;
2022/01/20 02:01:57;;;;;;;4.500001;3.45;;;;;;;3.03;65.13672;95702.34;;;;
2022/01/20 02:02:58;;;;;;;4.500001;3.45;;;;;;;3.03;65.13672;95702.34;;;;
2022/01/20 02:04:09;;;;;;;4.500001;3.45;;;;;;;3.03;65.13672;95702.34;;;;
2022/01/20 02:05:11;;;;;;;4.999999;3.4;;;;;;;3.04;65.27637;95693.35;;;;
2022/01/20 02:06:31;;;;;;;4.999999;3.4;;;;;;;3.04;65.27637;95693.35;;;;
2022/01/20 02:08:03;;;;;;;4.999999;3.4;;;;;;;3.04;65.27637;95693.35;;;;
2022/01/20 02:09:19;;;;;;;4.999999;3.4;;;;;;;3.04;65.27637;95693.35;;;;
2022/01/20 02:20:47;;;;;;;4.05;3.05;;;;;;;3.11;65.31934;95690.17;;;;
2022/01/20 02:21:47;;;;;;;4.05;3.05;;;;;;;3.11;65.31934;95690.17;;;;
2022/01/20 02:22:50;;;;;;;4.05;3.05;;;;;;;3.11;65.31934;95690.17;;;;
2022/01/20 02:23:51;;;;;;;4.05;3.05;;;;;;;3.11;65.31934;95690.17;;;;
2022/01/20 02:24:52;;;;;;;4.05;3.05;;;;;;;3.11;65.31934;95690.17;;;;
2022/01/20 02:25:52;;;;;;;4.849999;3.45;;;;;;;3.13;65.45898;95693.61;;;;
2022/01/20 02:26:53;;;;;;;4.849999;3.45;;;;;;;3.13;65.45898;95693.61;;;;
2022/01/20 02:27:54;;;;;;;4.849999;3.45;;;;;;;3.13;65.45898;95693.61;;;;
2022/01/20 02:28:58;;;;;;;4.849999;3.45;;;;;;;3.13;65.45898;95693.61;;;;
2022/01/20 02:29:58;;;;;;;4.849999;3.45;;;;;;;3.13;65.45898;95693.61;;;;
2022/01/20 02:30:59;;;;;;;4.849999;3.45;;;;;;;3.13;65.45898;95693.61;;;;
2022/01/20 02:32:00;;;;;;;4.849999;3.45;;;;;;;3.13;65.45898;95693.61;;;;
2022/01/20 02:33:00;;;;;;;4.849999;3.45;;;;;;;3.13;65.45898;95693.61;;;;
2022/01/20 02:34:03;;;;;;;4.849999;3.45;;;;;;;3.13;65.45898;95693.61;;;;
2022/01/20 02:35:07;;;;;;;4.849999;3.45;;;;;;;3.13;65.45898;95693.61;;;;
2022/01/20 02:36:11;;;;;;;4.849999;3.45;;;;;;;3.13;65.45898;95693.61;;;;
2022/01/20 02:37:14;;;;;;;4.299999;3.35;;;;;;;3.09;65.49609;95680.72;;;;
2022/01/20 02:38:20;;;;;;;4.299999;3.35;;;;;;;3.09;65.49609;95680.72;;;;
2022/01/20 02:39:42;;;;;;;4.299999;3.35;;;;;;;3.09;65.49609;95680.72;;;;
2022/01/20 02:45:52;;;;;;;4.299999;3.35;;;;;;;3.09;65.49609;95680.72;;;;
2022/01/20 02:46:53;;;;;;;4.299999;3.35;;;;;;;3.09;65.49609;95680.72;;;;
2022/01/20 02:47:53;;;;;;;4.75;3.55;;;;;;;3.04;65.71875;95664.43;;;;
2022/01/20 02:48:54;;;;;;;4.75;3.55;;;;;;;3.04;65.71875;95664.43;;;;
2022/01/20 02:49:54;;;;;;;4.75;3.55;;;;;;;3.04;65.71875;95664.43;;;;
2022/01/20 02:50:57;;;;;;;4.75;3.55;;;;;;;3.04;65.71875;95664.43;;;;
2022/01/20 02:51:58;;;;;;;4.75;3.55;;;;;;;3.04;65.71875;95664.43;;;;
2022/01/20 02:52:59;;;;;;;4.75;3.55;;;;;;;3.04;65.71875;95664.43;;;;
2022/01/20 02:54:00;;;;;;;4.75;3.55;;;;;;;3.04;65.71875;95664.43;;;;
2022/01/20 02:55:00;;;;;;;4.75;3.55;;;;;;;3.04;65.71875;95664.43;;;;
2022/01/20 02:56:01;;;;;;;4.75;3.55;;;;;;;3.04;65.71875;95664.43;;;;
2022/01/20 02:57:02;;;;;;;4.75;3.55;;;;;;;3.04;65.71875;95664.43;;;;
2022/01/20 02:58:03;;;;;;;4.1;3.6;;;;;;;3.04;65.79297;95661.77;;;;
2022/01/20 02:59:06;;;;;;;4.1;3.6;;;;;;;3.04;65.79297;95661.77;;;;
2022/01/20 03:00:06;;;;;;;4.1;3.6;;;;;;;3.04;65.79297;95661.77;;;;
2022/01/20 03:01:08;;;;;;;4.1;3.6;;;;;;;3.04;65.79297;95661.77;;;;
2022/01/20 03:02:09;;;;;;;4.1;3.6;;;;;;;3.04;65.79297;95661.77;;;;
2022/01/20 03:03:10;;;;;;;4.1;3.6;;;;;;;3.04;65.79297;95661.77;;;;
2022/01/20 03:04:11;;;;;;;4.1;3.6;;;;;;;3.04;65.79297;95661.77;;;;
2022/01/20 03:05:12;;;;;;;4.1;3.6;;;;;;;3.04;65.79297;95661.77;;;;
2022/01/20 03:06:12;;;;;;;4.1;3.6;;;;;;;3.04;65.79297;95661.77;;;;
2022/01/20 03:07:13;;;;;;;4.1;3.6;;;;;;;3.04;65.79297;95661.77;;;;
2022/01/20 03:08:13;;;;;;;4.1;3.6;;;;;;;3.04;65.79297;95661.77;;;;
2022/01/20 03:09:14;;;;;;;4.5;3.7;;;;;;;2.91;66.13086;95645.54;;;;
2022/01/20 03:10:17;;;;;;;4.5;3.7;;;;;;;2.91;66.13086;95645.54;;;;
2022/01/20 03:11:17;;;;;;;4.5;3.7;;;;;;;2.91;66.13086;95645.54;;;;
2022/01/20 03:12:18;;;;;;;4.5;3.7;;;;;;;2.91;66.13086;95645.54;;;;
2022/01/20 03:13:19;;;;;;;4.5;3.7;;;;;;;2.91;66.13086;95645.54;;;;
2022/01/20 03:14:19;;;;;;;4.5;3.7;;;;;;;2.91;66.13086;95645.54;;;;
2022/01/20 03:15:20;;;;;;;4.5;3.7;;;;;;;2.91;66.13086;95645.54;;;;
2022/01/20 03:16:20;;;;;;;4.5;3.7;;;;;;;2.91;66.13086;95645.54;;;;
2022/01/20 03:17:21;;;;;;;4.5;3.7;;;;;;;2.91;66.13086;95645.54;;;;
2022/01/20 03:18:22;;;;;;;4.5;3.7;;;;;;;2.91;66.13086;95645.54;;;;
2022/01/20 03:19:22;;;;;;;4.35;3.7;;;;;;;2.81;66.74707;95641.89;;;;
2022/01/20 03:20:23;;;;;;;4.35;3.7;;;;;;;2.81;66.74707;95641.89;;;;
2022/01/20 03:21:24;;;;;;;4.35;3.7;;;;;;;2.81;66.74707;95641.89;;;;
2022/01/20 03:22:24;;;;;;;4.35;3.7;;;;;;;2.81;66.74707;95641.89;;;;
2022/01/20 03:23:25;;;;;;;4.35;3.7;;;;;;;2.81;66.74707;95641.89;;;;
2022/01/20 03:24:26;;;;;;;4.35;3.7;;;;;;;2.81;66.74707;95641.89;;;;
2022/01/20 03:25:27;;;;;;;4.35;3.7;;;;;;;2.81;66.74707;95641.89;;;;
2022/01/20 03:26:28;;;;;;;4.35;3.7;;;;;;;2.81;66.74707;95641.89;;;;
2022/01/20 03:27:29;;;;;;;4.35;3.7;;;;;;;2.81;66.74707;95641.89;;;;
2022/01/20 03:28:29;;;;;;;4.35;3.7;;;;;;;2.81;66.74707;95641.89;;;;
2022/01/20 03:29:30;;;;;;;0;0;;;;;;;0;0;0;;;;
2022/01/20 03:30:30;;;;;;;0;0;;;;;;;0;0;0;;;;
2022/01/20 03:31:31;;;;;;;0;0;;;;;;;0;0;0;;;;
2022/01/20 03:32:33;;;;;;;0;0;;;;;;;0;0;0;;;;
2022/01/20 03:33:34;;;;;;;0;0;;;;;;;0;0;0;;;;
2022/01/20 03:34:35;;;;;;;0;0;;;;;;;0;0;0;;;;
2022/01/20 03:35:35;;;;;;;0;0;;;;;;;0;0;0;;;;
2022/01/20 03:36:36;;;;;;;0;0;;;;;;;0;0;0;;;;
2022/01/20 03:37:37;;;;;;;0;0;;;;;;;0;0;0;;;;
2022/01/20 03:38:37;;;;;;;0;0;;;;;;;0;0;0;;;;
2022/01/20 03:39:38;;;;;;;0;0;;;;;;;0;0;0;;;;
2022/01/20 03:40:38;;;;;;;0;0;;;;;;;0;0;0;;;;
2022/01/20 03:41:39;;;;;;;0;0;;;;;;;0;0;0;;;;
2022/01/20 03:42:40;;;;;;;0;0;;;;;;;0;0;0;;;;
2022/01/20 03:43:40;;;;;;;0;0;;;;;;;0;0;0;;;;
2022/01/20 03:44:41;;;;;;;0;0;;;;;;;0;0;0;;;;
2022/01/20 03:45:42;;;;;;;0;0;;;;;;;0;0;0;;;;
2022/01/20 03:46:43;;;;;;;0;0;;;;;;;0;0;0;;;;
2022/01/20 03:47:44;;;;;;;0;0;;;;;;;0;0;0;;;;
2022/01/20 03:48:50;;;;;;;0;0;;;;;;;0;0;0;;;;
2022/01/20 03:49:54;;;;;;;0;0;;;;;;;0;0;0;;;;
2022/01/20 03:51:02;;;;;;;0;0;;;;;;;0;0;0;;;;
2022/01/20 03:52:03;;;;;;;0;0;;;;;;;0;0;0;;;;
2022/01/20 03:53:05;;;;;;;0;0;;;;;;;0;0;0;;;;
2022/01/20 03:54:06;;;;;;;0;0;;;;;;;0;0;0;;;;
2022/01/20 03:55:06;;;;;;;0;0;;;;;;;0;0;0;;;;
2022/01/20 03:56:09;;;;;;;0;0;;;;;;;0;0;0;;;;
2022/01/20 03:57:10;;;;;;;0;0;;;;;;;0;0;0;;;;
2022/01/20 03:58:10;;;;;;;0;0;;;;;;;0;0;0;;;;
2022/01/20 03:59:11;;;;;;;0;0;;;;;;;0;0;0;;;;
2022/01/20 04:00:12;;;;;;;0;0;;;;;;;0;0;0;;;;
2022/01/20 04:01:14;;;;;;;0;0;;;;;;;0;0;0;;;;
2022/01/20 04:02:15;;;;;;;0;0;;;;;;;0;0;0;;;;
2022/01/20 04:03:17;;;;;;;0;0;;;;;;;0;0;0;;;;
2022/01/20 04:04:19;;;;;;;0;0;;;;;;;0;0;0;;;;
2022/01/20 04:05:19;;;;;;;0;0;;;;;;;0;0;0;;;;
2022/01/20 04:06:20;;;;;;;0;0;;;;;;;0;0;0;;;;
2022/01/20 04:07:21;;;;;;;0;0;;;;;;;0;0;0;;;;
2022/01/20 04:08:21;;;;;;;0;0;;;;;;;0;0;0;;;;
2022/01/20 04:09:23;;;;;;;0;0;;;;;;;0;0;0;;;;
2022/01/20 04:10:24;;;;;;;0;0;;;;;;;0;0;0;;;;
2022/01/20 04:11:24;;;;;;;0;0;;;;;;;0;0;0;;;;
2022/01/20 04:12:28;;;;;;;0;0;;;;;;;0;0;0;;;;
2022/01/20 04:13:30;;;;;;;0;0;;;;;;;0;0;0;;;;
2022/01/20 04:14:33;;;;;;;0;0;;;;;;;0;0;0;;;;
2022/01/20 04:15:38;;;;;;;0;0;;;;;;;0;0;0;;;;
2022/01/20 04:16:50;;;;;;;0;0;;;;;;;0;0;0;;;;
2022/01/20 04:18:01;;;;;;;0;0;;;;;;;0;0;0;;;;
2022/01/20 04:19:01;;;;;;;0;0;;;;;;;0;0;0;;;;
2022/01/20 04:20:05;;;;;;;0;0;;;;;;;0;0;0;;;;
2022/01/20 04:21:07;;;;;;;0;0;;;;;;;0;0;0;;;;
2022/01/20 04:22:08;;;;;;;0;0;;;;;;;0;0;0;;;;
2022/01/20 04:23:09;;;;;;;0;0;;;;;;;0;0;0;;;;
2022/01/20 04:24:10;;;;;;;0;0;;;;;;;0;0;0;;;;
2022/01/20 04:25:11;;;;;;;0;0;;;;;;;0;0;0;;;;
2022/01/20 04:26:12;;;;;;;0;0;;;;;;;0;0;0;;;;
2022/01/20 04:27:12;;;;;;;0;0;;;;;;;0;0;0;;;;
2022/01/20 04:28:13;;;;;;;0;0;;;;;;;0;0;0;;;;
2022/01/20 04:29:13;;;;;;;0;0;;;;;;;0;0;0;;;;
2022/01/20 04:30:15;;;;;;;0;0;;;;;;;0;0;0;;;;
2022/01/20 04:31:15;;;;;;;0;0;;;;;;;0;0;0;;;;
2022/01/20 04:32:16;;;;;;;0;0;;;;;;;0;0;0;;;;
2022/01/20 04:33:16;;;;;;;0;0;;;;;;;0;0;0;;;;
2022/01/20 04:34:17;;;;;;;0;0;;;;;;;0;0;0;;;;
2022/01/20 04:35:20;;;;;;;0;0;;;;;;;0;0;0;;;;
2022/01/20 04:36:20;;;;;;;0;0;;;;;;;0;0;0;;;;
2022/01/20 04:37:21;;;;;;;0;0;;;;;;;0;0;0;;;;
2022/01/20 04:38:22;;;;;;;0;0;;;;;;;0;0;0;;;;
2022/01/20 04:39:26;;;;;;;0;0;;;;;;;0;0;0;;;;
2022/01/20 04:40:26;;;;;;;0;0;;;;;;;0;0;0;;;;
2022/01/20 04:41:29;;;;;;;0;0;;;;;;;0;0;0;;;;
2022/01/20 04:42:32;;;;;;;0;0;;;;;;;0;0;0;;;;
2022/01/20 04:43:33;;;;;;;0;0;;;;;;;0;0;0;;;;
2022/01/20 04:44:41;;;;;;;0;0;;;;;;;0;0;0;;;;
2022/01/20 04:45:47;;;;;;;0;0;;;;;;;0;0;0;;;;
2022/01/20 04:46:54;;;;;;;0;0;;;;;;;0;0;0;;;;
2022/01/20 04:48:02;;;;;;;0;0;;;;;;;0;0;0;;;;
2022/01/20 04:56:59;;;;;;;0;0;;;;;;;0;0;0;;;;
2022/01/20 05:00:27;;;;;;;0;0;;;;;;;0;0;0;;;;
2022/01/20 05:01:28;;;;;;;0;0;;;;;;;0;0;0;;;;
2022/01/20 05:02:29;;;;;;;0;0;;;;;;;0;0;0;;;;
2022/01/20 05:03:30;;;;;;;0;0;;;;;;;0;0;0;;;;
2022/01/20 05:04:30;;;;;;;0;0;;;;;;;0;0;0;;;;
2022/01/20 05:05:31;;;;;;;0;0;;;;;;;0;0;0;;;;
2022/01/20 05:06:33;;;;;;;0;0;;;;;;;0;0;0;;;;
2022/01/20 05:07:33;;;;;;;0;0;;;;;;;0;0;0;;;;
2022/01/20 05:08:34;;;;;;;0;0;;;;;;;0;0;0;;;;
2022/01/20 05:09:35;;;;;;;0;0;;;;;;;0;0;0;;;;
2022/01/20 05:10:36;;;;;;;0;0;;;;;;;0;0;0;;;;
2022/01/20 05:11:42;;;;;;;0;0;;;;;;;0;0;0;;;;
2022/01/20 05:13:22;;;;;;;0;0;;;;;;;0;0;0;;;;
2022/01/20 05:14:23;;;;;;;0;0;;;;;;;0;0;0;;;;
2022/01/20 05:15:23;;;;;;;0;0;;;;;;;0;0;0;;;;
2022/01/20 05:16:25;;;;;;;0;0;;;;;;;0;0;0;;;;
2022/01/20 05:17:25;;;;;;;0;0;;;;;;;0;0;0;;;;
2022/01/20 05:18:26;;;;;;;0;0;;;;;;;0;0;0;;;;
2022/01/20 05:19:27;;;;;;;0;0;;;;;;;0;0;0;;;;
2022/01/20 05:20:30;;;;;;;0;0;;;;;;;0;0;0;;;;
2022/01/20 05:21:31;;;;;;;0;0;;;;;;;0;0;0;;;;
2022/01/20 05:22:31;;;;;;;0;0;;;;;;;0;0;0;;;;
2022/01/20 05:23:32;;;;;;;0;0;;;;;;;0;0;0;;;;
2022/01/20 05:24:32;;;;;;;0;0;;;;;;;0;0;0;;;;
2022/01/20 05:25:33;;;;;;;0;0;;;;;;;0;0;0;;;;
2022/01/20 05:26:33;;;;;;;0;0;;;;;;;0;0;0;;;;
2022/01/20 05:27:34;;;;;;;0;0;;;;;;;0;0;0;;;;
2022/01/20 05:28:35;;;;;;;0;0;;;;;;;0;0;0;;;;
2022/01/20 05:29:35;;;;;;;0;0;;;;;;;0;0;0;;;;
2022/01/20 05:30:36;;;;;;;0;0;;;;;;;0;0;0;;;;
2022/01/20 05:31:37;;;;;;;0;0;;;;;;;0;0;0;;;;
2022/01/20 05:32:37;;;;;;;0;0;;;;;;;0;0;0;;;;
2022/01/20 05:33:38;;;;;;;0;0;;;;;;;0;0;0;;;;
2022/01/20 05:34:38;;;;;;;0;0;;;;;;;0;0;0;;;;
2022/01/20 05:35:39;;;;;;;0;0;;;;;;;0;0;0;;;;
2022/01/20 05:36:39;;;;;;;0;0;;;;;;;0;0;0;;;;
2022/01/20 05:37:40;;;;;;;0;0;;;;;;;0;0;0;;;;
2022/01/20 05:38:41;;;;;;;0;0;;;;;;;0;0;0;;;;
2022/01/20 05:39:42;;;;;;;0;0;;;;;;;0;0;0;;;;
2022/01/20 05:40:42;;;;;;;0;0;;;;;;;0;0;0;;;;
2022/01/20 05:41:43;;;;;;;0;0;;;;;;;0;0;0;;;;
2022/01/20 05:42:45;;;;;;;0;0;;;;;;;0;0;0;;;;
2022/01/20 05:43:45;;;;;;;0;0;;;;;;;0;0;0;;;;
2022/01/20 05:44:50;;;;;;;0;0;;;;;;;0;0;0;;;;
2022/01/20 05:45:51;;;;;;;0;0;;;;;;;0;0;0;;;;
2022/01/20 05:46:52;;;;;;;0;0;;;;;;;0;0;0;;;;
2022/01/20 05:48:00;;;;;;;0;0;;;;;;;0;0;0;;;;
2022/01/20 05:49:08;;;;;;;0;0;;;;;;;0;0;0;;;;
2022/01/20 05:50:09;;;;;;;0;0;;;;;;;0;0;0;;;;
2022/01/20 05:51:12;;;;;;;0;0;;;;;;;0;0;0;;;;
2022/01/20 05:52:15;;;;;;;0;0;;;;;;;0;0;0;;;;
2022/01/20 05:53:16;;;;;;;0;0;;;;;;;0;0;0;;;;
2022/01/20 05:54:16;;;;;;;0;0;;;;;;;0;0;0;;;;
2022/01/20 05:55:17;;;;;;;0;0;;;;;;;0;0;0;;;;
2022/01/20 05:56:20;;;;;;;0;0;;;;;;;0;0;0;;;;
2022/01/20 05:57:20;;;;;;;0;0;;;;;;;0;0;0;;;;
2022/01/20 05:58:21;;;;;;;0;0;;;;;;;0;0;0;;;;
2022/01/20 05:59:21;;;;;;;0;0;;;;;;;0;0;0;;;;
2022/01/20 06:00:24;;;;;;;0;0;;;;;;;0;0;0;;;;
2022/01/20 06:01:25;;;;;;;0;0;;;;;;;0;0;0;;;;
2022/01/20 06:02:34;;;;;;;0;0;;;;;;;0;0;0;;;;
2022/01/20 06:03:37;;;;;;;0;0;;;;;;;0;0;0;;;;
2022/01/20 06:04:38;;;;;;;0;0;;;;;;;0;0;0;;;;
2022/01/20 06:05:39;;;;;;;0;0;;;;;;;0;0;0;;;;
2022/01/20 06:06:40;;;;;;;0;0;;;;;;;0;0;0;;;;
2022/01/20 06:07:40;;;;;;;0;0;;;;;;;0;0;0;;;;
2022/01/20 06:08:41;;;;;;;0;0;;;;;;;0;0;0;;;;
2022/01/20 06:09:42;;;;;;;0;0;;;;;;;0;0;0;;;;
2022/01/20 06:10:43;;;;;;;0;0;;;;;;;0;0;0;;;;
2022/01/20 06:11:44;;;;;;;0;0;;;;;;;0;0;0;;;;
2022/01/20 06:12:44;;;;;;;0;0;;;;;;;0;0;0;;;;
2022/01/20 06:13:45;;;;;;;0;0;;;;;;;0;0;0;;;;
2022/01/20 06:14:45;;;;;;;0;0;;;;;;;0;0;0;;;;
2022/01/20 06:15:46;;;;;;;0;0;;;;;;;0;0;0;;;;
2022/01/20 06:16:47;;;;;;;0;0;;;;;;;0;0;0;;;;
2022/01/20 06:17:47;;;;;;;0;0;;;;;;;0;0;0;;;;
2022/01/20 06:18:48;;;;;;;0;0;;;;;;;0;0;0;;;;
2022/01/20 06:19:48;;;;;;;0;0;;;;;;;0;0;0;;;;
2022/01/20 06:20:49;;;;;;;0;0;;;;;;;0;0;0;;;;
2022/01/20 06:21:50;;;;;;;0;0;;;;;;;0;0;0;;;;
2022/01/20 06:22:50;;;;;;;0;0;;;;;;;0;0;0;;;;
2022/01/20 06:23:51;;;;;;;0;0;;;;;;;0;0;0;;;;
2022/01/20 06:24:52;;;;;;;0;0;;;;;;;0;0;0;;;;
2022/01/20 06:25:52;;;;;;;0;0;;;;;;;0;0;0;;;;
2022/01/20 06:26:53;;;;;;;0;0;;;;;;;0;0;0;;;;
2022/01/20 06:27:53;;;;;;;0;0;;;;;;;0;0;0;;;;
2022/01/20 06:28:54;;;;;;;0;0;;;;;;;0;0;0;;;;
2022/01/20 06:29:54;;;;;;;0;0;;;;;;;0;0;0;;;;
2022/01/20 06:30:55;;;;;;;0;0;;;;;;;0;0;0;;;;
2022/01/20 06:31:56;;;;;;;0;0;;;;;;;0;0;0;;;;
2022/01/20 06:32:56;;;;;;;0;0;;;;;;;0;0;0;;;;
2022/01/20 06:33:57;;;;;;;0;0;;;;;;;0;0;0;;;;
2022/01/20 06:34:58;;;;;;;0;0;;;;;;;0;0;0;;;;
2022/01/20 06:35:59;;;;;;;0;0;;;;;;;0;0;0;;;;
2022/01/20 06:36:59;;;;;;;0;0;;;;;;;0;0;0;;;;
2022/01/20 06:38:00;;;;;;;0;0;;;;;;;0;0;0;;;;
2022/01/20 06:39:01;;;;;;;0;0;;;;;;;0;0;0;;;;
2022/01/20 06:40:02;;;;;;;0;0;;;;;;;0;0;0;;;;
2022/01/20 06:41:05;;;;;;;0;0;;;;;;;0;0;0;;;;
2022/01/20 06:42:05;;;;;;;0;0;;;;;;;0;0;0;;;;
2022/01/20 06:43:07;;;;;;;0;0;;;;;;;0;0;0;;;;
2022/01/20 06:44:08;;;;;;;0;0;;;;;;;0;0;0;;;;
2022/01/20 06:45:08;;;;;;;0;0;;;;;;;0;0;0;;;;
2022/01/20 06:46:11;;;;;;;0;0;;;;;;;0;0;0;;;;
2022/01/20 06:47:12;;;;;;;0;0;;;;;;;0;0;0;;;;
2022/01/20 06:48:13;;;;;;;0;0;;;;;;;0;0;0;;;;
2022/01/20 06:49:13;;;;;;;0;0;;;;;;;0;0;0;;;;
2022/01/20 06:50:14;;;;;;;0;0;;;;;;;0;0;0;;;;
2022/01/20 06:51:15;;;;;;;0;0;;;;;;;0;0;0;;;;
2022/01/20 06:52:18;;;;;;;0;0;;;;;;;0;0;0;;;;
2022/01/20 06:53:18;;;;;;;0;0;;;;;;;0;0;0;;;;
2022/01/20 06:54:19;;;;;;;0;0;;;;;;;0;0;0;;;;
2022/01/20 06:55:19;;;;;;;0;0;;;;;;;0;0;0;;;;
2022/01/20 06:56:21;;;;;;;0;0;;;;;;;0;0;0;;;;
2022/01/20 06:57:22;;;;;;;0;0;;;;;;;0;0;0;;;;
2022/01/20 06:58:23;;;;;;;0;0;;;;;;;0;0;0;;;;
2022/01/20 06:59:23;;;;;;;0;0;;;;;;;0;0;0;;;;
2022/01/20 07:00:24;;;;;;;0;0;;;;;;;0;0;0;;;;
2022/01/20 07:01:25;;;;;;;0;0;;;;;;;0;0;0;;;;
2022/01/20 07:02:25;;;;;;;0;0;;;;;;;0;0;0;;;;
2022/01/20 07:03:26;;;;;;;0;0;;;;;;;0;0;0;;;;
2022/01/20 07:04:27;;;;;;;0;0;;;;;;;0;0;0;;;;
2022/01/20 07:05:28;;;;;;;0;0;;;;;;;0;0;0;;;;
2022/01/20 07:06:29;;;;;;;0;0;;;;;;;0;0;0;;;;
2022/01/20 07:07:30;;;;;;;0;0;;;;;;;0;0;0;;;;
2022/01/20 07:08:31;;;;;;;0;0;;;;;;;0;0;0;;;;
2022/01/20 07:09:32;;;;;;;0;0;;;;;;;0;0;0;;;;
2022/01/20 07:10:33;;;;;;;0;0;;;;;;;0;0;0;;;;
2022/01/20 07:11:34;;;;;;;0;0;;;;;;;0;0;0;;;;
2022/01/20 07:12:35;;;;;;;0;0;;;;;;;0;0;0;;;;
2022/01/20 07:13:36;;;;;;;0;0;;;;;;;0;0;0;;;;
2022/01/20 07:14:37;;;;;;;0;0;;;;;;;0;0;0;;;;
2022/01/20 07:15:37;;;;;;;0;0;;;;;;;0;0;0;;;;
2022/01/20 07:16:38;;;;;;;0;0;;;;;;;0;0;0;;;;
2022/01/20 07:17:39;;;;;;;0;0;;;;;;;0;0;0;;;;
2022/01/20 07:18:39;;;;;;;0;0;;;;;;;0;0;0;;;;
2022/01/20 07:19:40;;;;;;;0;0;;;;;;;0;0;0;;;;
2022/01/20 07:20:40;;;;;;;0;0;;;;;;;0;0;0;;;;
2022/01/20 07:21:41;;;;;;;0;0;;;;;;;0;0;0;;;;
2022/01/20 07:22:42;;;;;;;0;0;;;;;;;0;0;0;;;;
2022/01/20 07:23:42;;;;;;;0;0;;;;;;;0;0;0;;;;
2022/01/20 07:24:43;;;;;;;0;0;;;;;;;0;0;0;;;;
2022/01/20 07:25:44;;;;;;;0;0;;;;;;;0;0;0;;;;
2022/01/20 07:26:44;;;;;;;0;0;;;;;;;0;0;0;;;;
2022/01/20 07:27:45;;;;;;;0;0;;;;;;;0;0;0;;;;
2022/01/20 07:28:45;;;;;;;0;0;;;;;;;0;0;0;;;;
2022/01/20 07:29:46;;;;;;;0;0;;;;;;;0;0;0;;;;
2022/01/20 07:30:46;;;;;;;0;0;;;;;;;0;0;0;;;;
2022/01/20 07:31:47;;;;;;;0;0;;;;;;;0;0;0;;;;
2022/01/20 07:32:47;;;;;;;0;0;;;;;;;0;0;0;;;;
2022/01/20 07:33:48;;;;;;;0;0;;;;;;;0;0;0;;;;
2022/01/20 07:34:49;;;;;;;0;0;;;;;;;0;0;0;;;;
2022/01/20 07:35:49;;;;;;;0;0;;;;;;;0;0;0;;;;
2022/01/20 07:36:50;;;;;;;0;0;;;;;;;0;0;0;;;;
2022/01/20 07:37:51;;;;;;;0;0;;;;;;;0;0;0;;;;
2022/01/20 07:38:52;;;;;;;0;0;;;;;;;0;0;0;;;;
2022/01/20 07:39:53;;;;;;;0;0;;;;;;;0;0;0;;;;
2022/01/20 07:40:53;;;;;;;0;0;;;;;;;0;0;0;;;;
2022/01/20 07:41:54;;;;;;;0;0;;;;;;;0;0;0;;;;
2022/01/20 07:42:54;;;;;;;0;0;;;;;;;0;0;0;;;;
2022/01/20 07:43:55;;;;;;;0;0;;;;;;;0;0;0;;;;
2022/01/20 07:44:55;;;;;;;0;0;;;;;;;0;0;0;;;;
2022/01/20 07:45:56;;;;;;;0;0;;;;;;;0;0;0;;;;
2022/01/20 07:46:57;;;;;;;0;0;;;;;;;0;0;0;;;;
2022/01/20 07:47:58;;;;;;;0;0;;;;;;;0;0;0;;;;
2022/01/20 07:48:58;;;;;;;0;0;;;;;;;0;0;0;;;;
2022/01/20 07:49:59;;;;;;;0;0;;;;;;;0;0;0;;;;
2022/01/20 07:50:59;;;;;;;0;0;;;;;;;0;0;0;;;;
2022/01/20 07:52:01;;;;;;;0;0;;;;;;;0;0;0;;;;
2022/01/20 07:53:02;;;;;;;0;0;;;;;;;0;0;0;;;;
2022/01/20 07:54:03;;;;;;;0;0;;;;;;;0;0;0;;;;
2022/01/20 07:55:04;;;;;;;0;0;;;;;;;0;0;0;;;;
2022/01/20 07:56:05;;;;;;;0;0;;;;;;;0;0;0;;;;
2022/01/20 07:57:07;;;;;;;0;0;;;;;;;0;0;0;;;;
2022/01/20 07:58:07;;;;;;;0;0;;;;;;;0;0;0;;;;
2022/01/20 07:59:08;;;;;;;0;0;;;;;;;0;0;0;;;;
2022/01/20 08:00:09;;;;;;;0;0;;;;;;;0;0;0;;;;
2022/01/20 08:01:12;;;;;;;0;0;;;;;;;0;0;0;;;;
2022/01/20 08:02:14;;;;;;;0;0;;;;;;;0;0;0;;;;
2022/01/20 08:03:15;;;;;;;0;0;;;;;;;0;0;0;;;;
2022/01/20 08:04:16;;;;;;;0;0;;;;;;;0;0;0;;;;
2022/01/20 08:05:17;;;;;;;0;0;;;;;;;0;0;0;;;;
2022/01/20 08:06:18;;;;;;;0;0;;;;;;;0;0;0;;;;
2022/01/20 08:07:20;;;;;;;0;0;;;;;;;0;0;0;;;;
2022/01/20 08:08:21;;;;;;;0;0;;;;;;;0;0;0;;;;
2022/01/20 08:09:23;;;;;;;0;0;;;;;;;0;0;0;;;;
2022/01/20 08:10:24;;;;;;;0;0;;;;;;;0;0;0;;;;
2022/01/20 08:11:24;;;;;;;0;0;;;;;;;0;0;0;;;;
2022/01/20 08:12:25;;;;;;;0;0;;;;;;;0;0;0;;;;
2022/01/20 08:13:27;;;;;;;0;0;;;;;;;0;0;0;;;;
2022/01/20 08:14:29;;;;;;;0;0;;;;;;;0;0;0;;;;
2022/01/20 08:15:29;;;;;;;0;0;;;;;;;0;0;0;;;;